sensor_id;sensor_type;location;lat;lon;timestamp;P1;durP1;ratioP1;P2;durP2;ratioP2
5977;SDS011;3015;51.390;12.256;2022-10-29T00:01:42;8.23;;;7.40;;
5977;SDS011;3015;51.390;12.256;2022-10-29T00:04:08;8.17;;;6.93;;
5977;SDS011;3015;51.390;12.256;2022-10-29T00:06:33;7.33;;;6.73;;
5977;SDS011;3015;51.390;12.256;2022-10-29T00:08:59;6.97;;;6.47;;
5977;SDS011;3015;51.390;12.256;2022-10-29T00:11:25;10.47;;;8.40;;
5977;SDS011;3015;51.390;12.256;2022-10-29T00:13:52;9.43;;;7.70;;
5977;SDS011;3015;51.390;12.256;2022-10-29T00:16:28;8.38;;;7.43;;
5977;SDS011;3015;51.390;12.256;2022-10-29T00:18:58;8.87;;;7.40;;
5977;SDS011;3015;51.390;12.256;2022-10-29T00:21:24;12.70;;;8.70;;
5977;SDS011;3015;51.390;12.256;2022-10-29T00:23:50;10.97;;;8.03;;
5977;SDS011;3015;51.390;12.256;2022-10-29T00:26:17;9.73;;;8.73;;
5977;SDS011;3015;51.390;12.256;2022-10-29T00:28:44;8.27;;;7.60;;
5977;SDS011;3015;51.390;12.256;2022-10-29T00:31:12;8.37;;;7.60;;
5977;SDS011;3015;51.390;12.256;2022-10-29T00:33:39;9.63;;;8.73;;
5977;SDS011;3015;51.390;12.256;2022-10-29T00:36:06;9.40;;;8.53;;
5977;SDS011;3015;51.390;12.256;2022-10-29T00:38:35;8.25;;;7.47;;
5977;SDS011;3015;51.390;12.256;2022-10-29T00:41:01;12.73;;;7.60;;
5977;SDS011;3015;51.390;12.256;2022-10-29T00:43:28;8.80;;;7.43;;
5977;SDS011;3015;51.390;12.256;2022-10-29T00:46:02;7.77;;;7.10;;
5977;SDS011;3015;51.390;12.256;2022-10-29T00:48:32;8.53;;;7.83;;
5977;SDS011;3015;51.390;12.256;2022-10-29T00:51:01;7.27;;;6.60;;
5977;SDS011;3015;51.390;12.256;2022-10-29T00:53:31;7.95;;;7.13;;
5977;SDS011;3015;51.390;12.256;2022-10-29T00:56:00;6.83;;;6.33;;
5977;SDS011;3015;51.390;12.256;2022-10-29T00:58:26;10.63;;;6.90;;
5977;SDS011;3015;51.390;12.256;2022-10-29T01:00:53;8.90;;;7.73;;
5977;SDS011;3015;51.390;12.256;2022-10-29T01:03:19;8.60;;;6.83;;
5977;SDS011;3015;51.390;12.256;2022-10-29T01:05:44;10.83;;;7.47;;
5977;SDS011;3015;51.390;12.256;2022-10-29T01:08:12;9.60;;;7.70;;
5977;SDS011;3015;51.390;12.256;2022-10-29T01:13:36;10.40;;;8.60;;
5977;SDS011;3015;51.390;12.256;2022-10-29T01:16:25;6.87;;;6.27;;
5977;SDS011;3015;51.390;12.256;2022-10-29T01:21:39;7.03;;;6.40;;
5977;SDS011;3015;51.390;12.256;2022-10-29T01:24:15;8.73;;;7.82;;
5977;SDS011;3015;51.390;12.256;2022-10-29T01:35:48;7.25;;;6.60;;
5977;SDS011;3015;51.390;12.256;2022-10-29T01:39:06;7.93;;;7.10;;
5977;SDS011;3015;51.390;12.256;2022-10-29T01:41:30;8.13;;;7.53;;
5977;SDS011;3015;51.390;12.256;2022-10-29T01:47:19;7.50;;;6.90;;
5977;SDS011;3015;51.390;12.256;2022-10-29T01:49:47;6.60;;;6.00;;
5977;SDS011;3015;51.390;12.256;2022-10-29T01:52:18;6.93;;;6.43;;
5977;SDS011;3015;51.390;12.256;2022-10-29T01:54:46;8.07;;;7.20;;
5977;SDS011;3015;51.390;12.256;2022-10-29T02:00:11;9.35;;;5.97;;
5977;SDS011;3015;51.390;12.256;2022-10-29T02:05:37;7.43;;;6.73;;
5977;SDS011;3015;51.390;12.256;2022-10-29T02:11:33;11.20;;;6.97;;
5977;SDS011;3015;51.390;12.256;2022-10-29T02:14:10;7.23;;;6.63;;
5977;SDS011;3015;51.390;12.256;2022-10-29T02:16:44;8.40;;;7.55;;
5977;SDS011;3015;51.390;12.256;2022-10-29T02:19:10;9.63;;;6.95;;
5977;SDS011;3015;51.390;12.256;2022-10-29T02:21:36;9.97;;;7.53;;
5977;SDS011;3015;51.390;12.256;2022-10-29T02:24:01;7.30;;;6.57;;
5977;SDS011;3015;51.390;12.256;2022-10-29T02:26:27;9.20;;;7.03;;
5977;SDS011;3015;51.390;12.256;2022-10-29T02:28:52;7.57;;;6.83;;
5977;SDS011;3015;51.390;12.256;2022-10-29T02:31:18;8.20;;;7.37;;
5977;SDS011;3015;51.390;12.256;2022-10-29T02:33:43;8.17;;;6.70;;
5977;SDS011;3015;51.390;12.256;2022-10-29T02:36:09;7.30;;;6.10;;
5977;SDS011;3015;51.390;12.256;2022-10-29T02:38:35;6.63;;;5.63;;
5977;SDS011;3015;51.390;12.256;2022-10-29T02:41:00;9.27;;;6.30;;
5977;SDS011;3015;51.390;12.256;2022-10-29T02:43:26;7.23;;;6.70;;
5977;SDS011;3015;51.390;12.256;2022-10-29T02:46:14;7.63;;;6.73;;
5977;SDS011;3015;51.390;12.256;2022-10-29T02:48:44;8.50;;;6.53;;
5977;SDS011;3015;51.390;12.256;2022-10-29T02:51:10;7.20;;;6.55;;
5977;SDS011;3015;51.390;12.256;2022-10-29T02:53:36;7.80;;;6.93;;
5977;SDS011;3015;51.390;12.256;2022-10-29T02:56:02;6.73;;;6.13;;
5977;SDS011;3015;51.390;12.256;2022-10-29T02:58:28;6.68;;;6.05;;
5977;SDS011;3015;51.390;12.256;2022-10-29T03:00:54;6.63;;;6.13;;
5977;SDS011;3015;51.390;12.256;2022-10-29T03:03:19;7.70;;;6.23;;
5977;SDS011;3015;51.390;12.256;2022-10-29T03:05:45;6.40;;;5.83;;
5977;SDS011;3015;51.390;12.256;2022-10-29T03:08:11;7.80;;;6.70;;
5977;SDS011;3015;51.390;12.256;2022-10-29T03:10:37;9.00;;;7.27;;
5977;SDS011;3015;51.390;12.256;2022-10-29T03:13:02;9.67;;;6.20;;
5977;SDS011;3015;51.390;12.256;2022-10-29T03:15:28;7.80;;;5.97;;
5977;SDS011;3015;51.390;12.256;2022-10-29T03:17:53;9.83;;;5.97;;
5977;SDS011;3015;51.390;12.256;2022-10-29T03:20:19;7.60;;;6.30;;
5977;SDS011;3015;51.390;12.256;2022-10-29T03:22:45;7.00;;;6.33;;
5977;SDS011;3015;51.390;12.256;2022-10-29T03:25:10;6.40;;;5.80;;
5977;SDS011;3015;51.390;12.256;2022-10-29T03:27:42;7.00;;;6.03;;
5977;SDS011;3015;51.390;12.256;2022-10-29T03:30:09;8.13;;;6.43;;
5977;SDS011;3015;51.390;12.256;2022-10-29T03:32:42;6.32;;;5.80;;
5977;SDS011;3015;51.390;12.256;2022-10-29T03:35:09;7.45;;;6.43;;
5977;SDS011;3015;51.390;12.256;2022-10-29T03:37:36;9.68;;;6.68;;
5977;SDS011;3015;51.390;12.256;2022-10-29T03:40:03;7.97;;;6.33;;
5977;SDS011;3015;51.390;12.256;2022-10-29T03:42:29;6.57;;;5.95;;
5977;SDS011;3015;51.390;12.256;2022-10-29T03:44:58;9.50;;;6.63;;
5977;SDS011;3015;51.390;12.256;2022-10-29T03:47:25;8.75;;;5.90;;
5977;SDS011;3015;51.390;12.256;2022-10-29T03:49:52;8.70;;;6.32;;
5977;SDS011;3015;51.390;12.256;2022-10-29T03:52:19;6.05;;;5.55;;
5977;SDS011;3015;51.390;12.256;2022-10-29T03:54:45;8.80;;;7.43;;
5977;SDS011;3015;51.390;12.256;2022-10-29T03:57:10;6.50;;;5.90;;
5977;SDS011;3015;51.390;12.256;2022-10-29T03:59:36;9.77;;;6.13;;
5977;SDS011;3015;51.390;12.256;2022-10-29T04:02:02;7.10;;;5.80;;
5977;SDS011;3015;51.390;12.256;2022-10-29T04:04:28;6.83;;;6.10;;
5977;SDS011;3015;51.390;12.256;2022-10-29T04:06:53;6.70;;;5.77;;
5977;SDS011;3015;51.390;12.256;2022-10-29T04:09:19;6.10;;;5.50;;
5977;SDS011;3015;51.390;12.256;2022-10-29T04:11:44;8.87;;;7.23;;
5977;SDS011;3015;51.390;12.256;2022-10-29T04:14:10;10.37;;;7.20;;
5977;SDS011;3015;51.390;12.256;2022-10-29T04:16:36;7.37;;;6.23;;
5977;SDS011;3015;51.390;12.256;2022-10-29T04:19:02;6.90;;;6.30;;
5977;SDS011;3015;51.390;12.256;2022-10-29T04:21:28;6.35;;;5.53;;
5977;SDS011;3015;51.390;12.256;2022-10-29T04:23:53;7.23;;;6.53;;
5977;SDS011;3015;51.390;12.256;2022-10-29T04:26:19;11.70;;;6.40;;
5977;SDS011;3015;51.390;12.256;2022-10-29T04:28:48;6.10;;;5.50;;
5977;SDS011;3015;51.390;12.256;2022-10-29T04:31:15;8.02;;;6.45;;
5977;SDS011;3015;51.390;12.256;2022-10-29T04:33:41;6.07;;;5.45;;
5977;SDS011;3015;51.390;12.256;2022-10-29T04:36:06;6.23;;;5.37;;
5977;SDS011;3015;51.390;12.256;2022-10-29T04:38:32;6.72;;;6.13;;
5977;SDS011;3015;51.390;12.256;2022-10-29T04:40:58;7.20;;;5.80;;
5977;SDS011;3015;51.390;12.256;2022-10-29T04:43:25;6.30;;;5.70;;
5977;SDS011;3015;51.390;12.256;2022-10-29T04:45:52;6.57;;;5.90;;
5977;SDS011;3015;51.390;12.256;2022-10-29T04:48:18;6.13;;;5.53;;
5977;SDS011;3015;51.390;12.256;2022-10-29T04:50:45;7.25;;;5.60;;
5977;SDS011;3015;51.390;12.256;2022-10-29T04:53:11;6.97;;;6.00;;
5977;SDS011;3015;51.390;12.256;2022-10-29T04:55:36;8.33;;;5.97;;
5977;SDS011;3015;51.390;12.256;2022-10-29T04:58:06;6.15;;;5.60;;
5977;SDS011;3015;51.390;12.256;2022-10-29T05:00:36;6.72;;;6.07;;
5977;SDS011;3015;51.390;12.256;2022-10-29T05:03:01;5.73;;;5.30;;
5977;SDS011;3015;51.390;12.256;2022-10-29T05:05:27;6.13;;;5.63;;
5977;SDS011;3015;51.390;12.256;2022-10-29T05:07:57;6.03;;;5.40;;
5977;SDS011;3015;51.390;12.256;2022-10-29T05:10:28;6.72;;;6.13;;
5977;SDS011;3015;51.390;12.256;2022-10-29T05:12:56;8.25;;;5.93;;
5977;SDS011;3015;51.390;12.256;2022-10-29T05:15:23;6.93;;;6.38;;
5977;SDS011;3015;51.390;12.256;2022-10-29T05:17:49;6.70;;;6.10;;
5977;SDS011;3015;51.390;12.256;2022-10-29T05:20:14;6.20;;;5.70;;
5977;SDS011;3015;51.390;12.256;2022-10-29T05:22:40;6.60;;;6.10;;
5977;SDS011;3015;51.390;12.256;2022-10-29T05:25:06;6.70;;;6.10;;
5977;SDS011;3015;51.390;12.256;2022-10-29T05:27:31;5.97;;;5.47;;
5977;SDS011;3015;51.390;12.256;2022-10-29T05:29:57;7.20;;;5.63;;
5977;SDS011;3015;51.390;12.256;2022-10-29T05:32:24;6.25;;;5.75;;
5977;SDS011;3015;51.390;12.256;2022-10-29T05:34:52;6.50;;;5.90;;
5977;SDS011;3015;51.390;12.256;2022-10-29T05:37:18;6.63;;;6.03;;
5977;SDS011;3015;51.390;12.256;2022-10-29T05:39:43;6.00;;;5.60;;
5977;SDS011;3015;51.390;12.256;2022-10-29T05:42:09;7.40;;;6.80;;
5977;SDS011;3015;51.390;12.256;2022-10-29T05:44:35;7.50;;;6.87;;
5977;SDS011;3015;51.390;12.256;2022-10-29T05:47:00;7.10;;;6.50;;
5977;SDS011;3015;51.390;12.256;2022-10-29T05:49:26;6.70;;;6.07;;
5977;SDS011;3015;51.390;12.256;2022-10-29T05:51:52;6.57;;;5.90;;
5977;SDS011;3015;51.390;12.256;2022-10-29T05:54:17;8.97;;;5.60;;
5977;SDS011;3015;51.390;12.256;2022-10-29T05:56:43;6.60;;;6.03;;
5977;SDS011;3015;51.390;12.256;2022-10-29T05:59:08;6.07;;;5.57;;
5977;SDS011;3015;51.390;12.256;2022-10-29T06:01:34;7.07;;;5.37;;
5977;SDS011;3015;51.390;12.256;2022-10-29T06:03:59;5.77;;;5.37;;
5977;SDS011;3015;51.390;12.256;2022-10-29T06:06:25;6.63;;;5.70;;
5977;SDS011;3015;51.390;12.256;2022-10-29T06:08:51;8.90;;;6.10;;
5977;SDS011;3015;51.390;12.256;2022-10-29T06:11:17;6.00;;;5.50;;
5977;SDS011;3015;51.390;12.256;2022-10-29T06:13:43;6.90;;;6.10;;
5977;SDS011;3015;51.390;12.256;2022-10-29T06:16:08;6.23;;;5.83;;
5977;SDS011;3015;51.390;12.256;2022-10-29T06:18:34;7.80;;;6.20;;
5977;SDS011;3015;51.390;12.256;2022-10-29T06:20:59;7.20;;;5.90;;
5977;SDS011;3015;51.390;12.256;2022-10-29T06:23:26;7.30;;;6.60;;
5977;SDS011;3015;51.390;12.256;2022-10-29T06:25:52;7.22;;;6.53;;
5977;SDS011;3015;51.390;12.256;2022-10-29T06:28:17;6.63;;;6.10;;
5977;SDS011;3015;51.390;12.256;2022-10-29T06:30:49;7.33;;;6.70;;
5977;SDS011;3015;51.390;12.256;2022-10-29T06:33:16;7.40;;;6.80;;
5977;SDS011;3015;51.390;12.256;2022-10-29T06:35:42;7.75;;;6.88;;
5977;SDS011;3015;51.390;12.256;2022-10-29T06:38:08;8.27;;;6.37;;
5977;SDS011;3015;51.390;12.256;2022-10-29T06:40:34;8.43;;;7.63;;
5977;SDS011;3015;51.390;12.256;2022-10-29T06:43:00;9.50;;;7.00;;
5977;SDS011;3015;51.390;12.256;2022-10-29T06:45:27;11.10;;;8.00;;
5977;SDS011;3015;51.390;12.256;2022-10-29T06:47:53;10.93;;;8.05;;
5977;SDS011;3015;51.390;12.256;2022-10-29T06:50:19;9.57;;;7.50;;
5977;SDS011;3015;51.390;12.256;2022-10-29T06:52:52;8.13;;;7.43;;
5977;SDS011;3015;51.390;12.256;2022-10-29T06:55:25;8.38;;;7.43;;
5977;SDS011;3015;51.390;12.256;2022-10-29T06:58:01;10.77;;;8.48;;
5977;SDS011;3015;51.390;12.256;2022-10-29T07:00:29;8.13;;;7.32;;
5977;SDS011;3015;51.390;12.256;2022-10-29T07:02:55;8.07;;;6.90;;
5977;SDS011;3015;51.390;12.256;2022-10-29T07:05:21;8.57;;;6.57;;
5977;SDS011;3015;51.390;12.256;2022-10-29T07:07:47;7.63;;;6.67;;
5977;SDS011;3015;51.390;12.256;2022-10-29T07:10:13;8.25;;;7.45;;
5977;SDS011;3015;51.390;12.256;2022-10-29T07:12:40;9.17;;;7.63;;
5977;SDS011;3015;51.390;12.256;2022-10-29T07:15:09;8.35;;;7.60;;
5977;SDS011;3015;51.390;12.256;2022-10-29T07:17:36;11.82;;;8.10;;
5977;SDS011;3015;51.390;12.256;2022-10-29T07:20:02;11.20;;;7.83;;
5977;SDS011;3015;51.390;12.256;2022-10-29T07:22:28;8.10;;;7.40;;
5977;SDS011;3015;51.390;12.256;2022-10-29T07:24:54;8.20;;;7.03;;
5977;SDS011;3015;51.390;12.256;2022-10-29T07:27:20;6.90;;;6.30;;
5977;SDS011;3015;51.390;12.256;2022-10-29T07:29:45;13.67;;;6.90;;
5977;SDS011;3015;51.390;12.256;2022-10-29T07:32:11;8.10;;;7.40;;
5977;SDS011;3015;51.390;12.256;2022-10-29T07:34:36;8.87;;;6.80;;
5977;SDS011;3015;51.390;12.256;2022-10-29T07:37:02;14.80;;;9.37;;
5977;SDS011;3015;51.390;12.256;2022-10-29T07:39:27;9.67;;;7.90;;
5977;SDS011;3015;51.390;12.256;2022-10-29T07:41:53;10.33;;;8.60;;
5977;SDS011;3015;51.390;12.256;2022-10-29T07:44:19;10.33;;;7.67;;
5977;SDS011;3015;51.390;12.256;2022-10-29T07:46:44;8.40;;;7.60;;
5977;SDS011;3015;51.390;12.256;2022-10-29T07:49:10;11.10;;;8.40;;
5977;SDS011;3015;51.390;12.256;2022-10-29T07:51:35;8.33;;;7.50;;
5977;SDS011;3015;51.390;12.256;2022-10-29T07:54:01;11.73;;;10.67;;
5977;SDS011;3015;51.390;12.256;2022-10-29T07:56:27;14.33;;;11.27;;
5977;SDS011;3015;51.390;12.256;2022-10-29T07:58:52;10.10;;;9.20;;
5977;SDS011;3015;51.390;12.256;2022-10-29T08:01:18;11.67;;;8.67;;
5977;SDS011;3015;51.390;12.256;2022-10-29T08:03:43;10.93;;;7.77;;
5977;SDS011;3015;51.390;12.256;2022-10-29T08:06:09;8.43;;;7.53;;
5977;SDS011;3015;51.390;12.256;2022-10-29T08:08:34;10.27;;;7.40;;
5977;SDS011;3015;51.390;12.256;2022-10-29T08:11:01;9.00;;;8.10;;
5977;SDS011;3015;51.390;12.256;2022-10-29T08:13:28;10.90;;;9.10;;
5977;SDS011;3015;51.390;12.256;2022-10-29T08:15:54;24.20;;;10.13;;
5977;SDS011;3015;51.390;12.256;2022-10-29T08:18:19;29.00;;;10.27;;
5977;SDS011;3015;51.390;12.256;2022-10-29T08:20:45;36.50;;;11.33;;
5977;SDS011;3015;51.390;12.256;2022-10-29T08:23:11;68.47;;;17.10;;
5977;SDS011;3015;51.390;12.256;2022-10-29T08:25:38;27.87;;;10.63;;
5977;SDS011;3015;51.390;12.256;2022-10-29T08:28:11;36.97;;;13.97;;
5977;SDS011;3015;51.390;12.256;2022-10-29T08:30:39;32.00;;;11.40;;
5977;SDS011;3015;51.390;12.256;2022-10-29T08:33:05;23.47;;;11.30;;
5977;SDS011;3015;51.390;12.256;2022-10-29T08:35:31;27.33;;;10.37;;
5977;SDS011;3015;51.390;12.256;2022-10-29T08:37:57;32.47;;;11.47;;
5977;SDS011;3015;51.390;12.256;2022-10-29T08:42:57;11.40;;;8.60;;
5977;SDS011;3015;51.390;12.256;2022-10-29T08:45:47;11.00;;;8.87;;
5977;SDS011;3015;51.390;12.256;2022-10-29T08:48:34;12.67;;;8.27;;
5977;SDS011;3015;51.390;12.256;2022-10-29T08:51:14;24.20;;;8.47;;
5977;SDS011;3015;51.390;12.256;2022-10-29T08:53:51;13.37;;;10.00;;
5977;SDS011;3015;51.390;12.256;2022-10-29T08:56:24;19.43;;;8.70;;
5977;SDS011;3015;51.390;12.256;2022-10-29T08:58:53;8.90;;;7.63;;
5977;SDS011;3015;51.390;12.256;2022-10-29T09:01:28;13.60;;;7.77;;
5977;SDS011;3015;51.390;12.256;2022-10-29T09:03:54;13.17;;;7.53;;
5977;SDS011;3015;51.390;12.256;2022-10-29T09:26:25;7.90;;;5.93;;
5977;SDS011;3015;51.390;12.256;2022-10-29T09:34:02;6.80;;;6.20;;
5977;SDS011;3015;51.390;12.256;2022-10-29T09:36:33;9.20;;;6.80;;
5977;SDS011;3015;51.390;12.256;2022-10-29T09:39:03;7.90;;;7.23;;
5977;SDS011;3015;51.390;12.256;2022-10-29T09:41:36;8.43;;;6.60;;
5977;SDS011;3015;51.390;12.256;2022-10-29T09:44:10;8.03;;;5.80;;
5977;SDS011;3015;51.390;12.256;2022-10-29T09:49:55;10.83;;;6.93;;
5977;SDS011;3015;51.390;12.256;2022-10-29T09:52:42;7.90;;;6.80;;
5977;SDS011;3015;51.390;12.256;2022-10-29T09:55:43;8.73;;;6.70;;
5977;SDS011;3015;51.390;12.256;2022-10-29T09:58:05;8.30;;;7.40;;
5977;SDS011;3015;51.390;12.256;2022-10-29T10:00:37;11.87;;;8.07;;
5977;SDS011;3015;51.390;12.256;2022-10-29T10:06:12;10.20;;;7.57;;
5977;SDS011;3015;51.390;12.256;2022-10-29T10:11:19;23.30;;;11.97;;
5977;SDS011;3015;51.390;12.256;2022-10-29T10:13:58;10.43;;;7.37;;
5977;SDS011;3015;51.390;12.256;2022-10-29T10:16:28;8.33;;;6.80;;
5977;SDS011;3015;51.390;12.256;2022-10-29T10:18:57;12.70;;;8.17;;
5977;SDS011;3015;51.390;12.256;2022-10-29T10:23:51;23.63;;;8.23;;
5977;SDS011;3015;51.390;12.256;2022-10-29T10:26:30;8.63;;;7.27;;
5977;SDS011;3015;51.390;12.256;2022-10-29T10:31:30;8.87;;;6.40;;
5977;SDS011;3015;51.390;12.256;2022-10-29T10:33:56;20.80;;;8.90;;
5977;SDS011;3015;51.390;12.256;2022-10-29T10:36:25;10.53;;;7.70;;
5977;SDS011;3015;51.390;12.256;2022-10-29T10:38:56;8.60;;;7.80;;
5977;SDS011;3015;51.390;12.256;2022-10-29T10:41:33;13.67;;;8.37;;
5977;SDS011;3015;51.390;12.256;2022-10-29T10:44:03;8.60;;;7.47;;
5977;SDS011;3015;51.390;12.256;2022-10-29T10:46:34;7.93;;;7.10;;
5977;SDS011;3015;51.390;12.256;2022-10-29T10:49:06;7.13;;;6.43;;
5977;SDS011;3015;51.390;12.256;2022-10-29T10:51:50;12.80;;;7.83;;
5977;SDS011;3015;51.390;12.256;2022-10-29T10:56:56;8.53;;;7.00;;
5977;SDS011;3015;51.390;12.256;2022-10-29T10:59:26;8.60;;;7.80;;
5977;SDS011;3015;51.390;12.256;2022-10-29T11:02:26;7.43;;;6.70;;
5977;SDS011;3015;51.390;12.256;2022-10-29T11:04:55;10.10;;;7.33;;
5977;SDS011;3015;51.390;12.256;2022-10-29T11:07:25;8.50;;;7.70;;
5977;SDS011;3015;51.390;12.256;2022-10-29T11:09:56;8.60;;;6.40;;
5977;SDS011;3015;51.390;12.256;2022-10-29T11:12:29;13.17;;;7.80;;
5977;SDS011;3015;51.390;12.256;2022-10-29T11:20:25;7.40;;;6.80;;
5977;SDS011;3015;51.390;12.256;2022-10-29T11:26:04;16.00;;;8.63;;
5977;SDS011;3015;51.390;12.256;2022-10-29T11:29:09;9.10;;;7.93;;
5977;SDS011;3015;51.390;12.256;2022-10-29T11:37:41;13.00;;;7.57;;
5977;SDS011;3015;51.390;12.256;2022-10-29T11:40:41;12.80;;;8.07;;
5977;SDS011;3015;51.390;12.256;2022-10-29T11:43:14;11.40;;;7.30;;
5977;SDS011;3015;51.390;12.256;2022-10-29T11:49:30;19.90;;;9.13;;
5977;SDS011;3015;51.390;12.256;2022-10-29T12:04:28;10.63;;;8.10;;
5977;SDS011;3015;51.390;12.256;2022-10-29T12:09:58;13.50;;;8.47;;
5977;SDS011;3015;51.390;12.256;2022-10-29T12:12:43;11.40;;;8.80;;
5977;SDS011;3015;51.390;12.256;2022-10-29T12:16:25;16.77;;;7.60;;
5977;SDS011;3015;51.390;12.256;2022-10-29T12:23:59;20.13;;;9.23;;
5977;SDS011;3015;51.390;12.256;2022-10-29T12:26:47;13.03;;;7.60;;
5977;SDS011;3015;51.390;12.256;2022-10-29T12:41:09;10.37;;;8.10;;
5977;SDS011;3015;51.390;12.256;2022-10-29T12:43:49;13.37;;;9.60;;
5977;SDS011;3015;51.390;12.256;2022-10-29T12:46:27;10.20;;;8.77;;
5977;SDS011;3015;51.390;12.256;2022-10-29T12:56:51;10.90;;;9.47;;
5977;SDS011;3015;51.390;12.256;2022-10-29T12:59:27;10.80;;;9.20;;
5977;SDS011;3015;51.390;12.256;2022-10-29T13:02:16;11.63;;;8.50;;
5977;SDS011;3015;51.390;12.256;2022-10-29T13:07:34;17.73;;;9.20;;
5977;SDS011;3015;51.390;12.256;2022-10-29T13:15:27;12.13;;;8.50;;
5977;SDS011;3015;51.390;12.256;2022-10-29T13:17:58;13.07;;;9.97;;
5977;SDS011;3015;51.390;12.256;2022-10-29T13:20:46;10.70;;;9.33;;
5977;SDS011;3015;51.390;12.256;2022-10-29T13:25:58;11.23;;;8.67;;
5977;SDS011;3015;51.390;12.256;2022-10-29T13:36:04;14.53;;;9.73;;
5977;SDS011;3015;51.390;12.256;2022-10-29T13:46:38;14.80;;;9.27;;
5977;SDS011;3015;51.390;12.256;2022-10-29T13:49:08;8.50;;;7.60;;
5977;SDS011;3015;51.390;12.256;2022-10-29T13:51:58;16.00;;;9.07;;
5977;SDS011;3015;51.390;12.256;2022-10-29T13:54:40;10.57;;;8.03;;
5977;SDS011;3015;51.390;12.256;2022-10-29T13:57:22;11.07;;;7.83;;
5977;SDS011;3015;51.390;12.256;2022-10-29T13:59:58;9.57;;;8.23;;
5977;SDS011;3015;51.390;12.256;2022-10-29T14:10:32;11.97;;;7.70;;
5977;SDS011;3015;51.390;12.256;2022-10-29T14:13:09;10.40;;;7.93;;
5977;SDS011;3015;51.390;12.256;2022-10-29T14:15:58;11.57;;;8.03;;
5977;SDS011;3015;51.390;12.256;2022-10-29T14:18:25;9.50;;;8.00;;
5977;SDS011;3015;51.390;12.256;2022-10-29T14:20:54;10.80;;;8.43;;
5977;SDS011;3015;51.390;12.256;2022-10-29T14:23:26;15.17;;;8.67;;
5977;SDS011;3015;51.390;12.256;2022-10-29T14:25:57;10.67;;;8.17;;
5977;SDS011;3015;51.390;12.256;2022-10-29T14:28:27;10.60;;;7.80;;
5977;SDS011;3015;51.390;12.256;2022-10-29T14:33:31;10.63;;;8.33;;
5977;SDS011;3015;51.390;12.256;2022-10-29T14:41:10;14.43;;;8.20;;
5977;SDS011;3015;51.390;12.256;2022-10-29T14:43:38;9.83;;;7.90;;
5977;SDS011;3015;51.390;12.256;2022-10-29T14:46:12;16.07;;;8.00;;
5977;SDS011;3015;51.390;12.256;2022-10-29T14:48:58;9.50;;;8.50;;
5977;SDS011;3015;51.390;12.256;2022-10-29T14:51:32;11.70;;;8.60;;
5977;SDS011;3015;51.390;12.256;2022-10-29T14:54:02;10.50;;;7.67;;
5977;SDS011;3015;51.390;12.256;2022-10-29T14:56:35;9.07;;;7.83;;
5977;SDS011;3015;51.390;12.256;2022-10-29T14:59:17;9.73;;;8.40;;
5977;SDS011;3015;51.390;12.256;2022-10-29T15:01:46;18.20;;;8.00;;
5977;SDS011;3015;51.390;12.256;2022-10-29T15:04:18;12.83;;;7.80;;
5977;SDS011;3015;51.390;12.256;2022-10-29T15:06:46;14.60;;;8.87;;
5977;SDS011;3015;51.390;12.256;2022-10-29T15:09:12;8.90;;;8.10;;
5977;SDS011;3015;51.390;12.256;2022-10-29T15:14:33;11.47;;;8.43;;
5977;SDS011;3015;51.390;12.256;2022-10-29T15:17:01;9.80;;;8.47;;
5977;SDS011;3015;51.390;12.256;2022-10-29T15:19:40;9.83;;;8.80;;
5977;SDS011;3015;51.390;12.256;2022-10-29T15:22:08;10.17;;;7.63;;
5977;SDS011;3015;51.390;12.256;2022-10-29T15:24:49;9.60;;;8.33;;
5977;SDS011;3015;51.390;12.256;2022-10-29T15:27:15;11.57;;;10.37;;
5977;SDS011;3015;51.390;12.256;2022-10-29T15:29:43;12.83;;;9.60;;
5977;SDS011;3015;51.390;12.256;2022-10-29T15:32:11;10.67;;;8.90;;
5977;SDS011;3015;51.390;12.256;2022-10-29T15:34:43;10.20;;;9.20;;
5977;SDS011;3015;51.390;12.256;2022-10-29T15:37:20;11.70;;;9.03;;
5977;SDS011;3015;51.390;12.256;2022-10-29T15:40:17;13.73;;;8.90;;
5977;SDS011;3015;51.390;12.256;2022-10-29T15:42:44;12.90;;;9.50;;
5977;SDS011;3015;51.390;12.256;2022-10-29T15:47:36;11.93;;;9.03;;
5977;SDS011;3015;51.390;12.256;2022-10-29T15:50:03;9.60;;;8.70;;
5977;SDS011;3015;51.390;12.256;2022-10-29T15:52:31;9.30;;;8.37;;
5977;SDS011;3015;51.390;12.256;2022-10-29T15:55:09;10.13;;;9.20;;
5977;SDS011;3015;51.390;12.256;2022-10-29T15:57:46;10.90;;;9.07;;
5977;SDS011;3015;51.390;12.256;2022-10-29T16:00:15;11.40;;;10.10;;
5977;SDS011;3015;51.390;12.256;2022-10-29T16:02:41;14.50;;;13.10;;
5977;SDS011;3015;51.390;12.256;2022-10-29T16:05:10;14.43;;;13.03;;
5977;SDS011;3015;51.390;12.256;2022-10-29T16:07:37;18.40;;;13.13;;
5977;SDS011;3015;51.390;12.256;2022-10-29T16:10:03;16.60;;;13.10;;
5977;SDS011;3015;51.390;12.256;2022-10-29T16:12:29;18.80;;;15.20;;
5977;SDS011;3015;51.390;12.256;2022-10-29T16:14:55;18.80;;;15.33;;
5977;SDS011;3015;51.390;12.256;2022-10-29T16:17:21;13.90;;;12.53;;
5977;SDS011;3015;51.390;12.256;2022-10-29T16:19:47;19.20;;;13.10;;
5977;SDS011;3015;51.390;12.256;2022-10-29T16:22:21;19.20;;;15.30;;
5977;SDS011;3015;51.390;12.256;2022-10-29T16:24:55;14.90;;;13.13;;
5977;SDS011;3015;51.390;12.256;2022-10-29T16:27:20;17.03;;;12.57;;
5977;SDS011;3015;51.390;12.256;2022-10-29T16:29:46;16.17;;;12.60;;
5977;SDS011;3015;51.390;12.256;2022-10-29T16:32:14;14.40;;;12.40;;
5977;SDS011;3015;51.390;12.256;2022-10-29T16:34:40;18.00;;;12.67;;
5977;SDS011;3015;51.390;12.256;2022-10-29T16:37:09;19.67;;;14.00;;
5977;SDS011;3015;51.390;12.256;2022-10-29T16:39:37;19.20;;;16.10;;
5977;SDS011;3015;51.390;12.256;2022-10-29T16:42:03;17.63;;;15.73;;
5977;SDS011;3015;51.390;12.256;2022-10-29T16:44:29;26.57;;;18.23;;
5977;SDS011;3015;51.390;12.256;2022-10-29T16:46:54;22.03;;;18.17;;
5977;SDS011;3015;51.390;12.256;2022-10-29T16:49:20;23.67;;;19.00;;
5977;SDS011;3015;51.390;12.256;2022-10-29T16:51:46;15.23;;;12.00;;
5977;SDS011;3015;51.390;12.256;2022-10-29T16:54:11;13.37;;;11.30;;
5977;SDS011;3015;51.390;12.256;2022-10-29T16:56:37;15.43;;;13.27;;
5977;SDS011;3015;51.390;12.256;2022-10-29T16:59:02;16.13;;;13.27;;
5977;SDS011;3015;51.390;12.256;2022-10-29T17:01:28;16.37;;;13.80;;
5977;SDS011;3015;51.390;12.256;2022-10-29T17:03:54;18.00;;;14.57;;
5977;SDS011;3015;51.390;12.256;2022-10-29T17:06:19;14.50;;;13.20;;
5977;SDS011;3015;51.390;12.256;2022-10-29T17:08:45;15.00;;;13.50;;
5977;SDS011;3015;51.390;12.256;2022-10-29T17:11:10;14.63;;;13.13;;
5977;SDS011;3015;51.390;12.256;2022-10-29T17:13:36;16.20;;;12.70;;
5977;SDS011;3015;51.390;12.256;2022-10-29T17:16:08;13.50;;;10.57;;
5977;SDS011;3015;51.390;12.256;2022-10-29T17:18:38;15.03;;;11.80;;
5977;SDS011;3015;51.390;12.256;2022-10-29T17:21:04;10.83;;;9.83;;
5977;SDS011;3015;51.390;12.256;2022-10-29T17:23:31;12.00;;;10.03;;
5977;SDS011;3015;51.390;12.256;2022-10-29T17:25:57;13.73;;;12.37;;
5977;SDS011;3015;51.390;12.256;2022-10-29T17:28:24;14.97;;;11.33;;
5977;SDS011;3015;51.390;12.256;2022-10-29T17:30:51;13.53;;;12.20;;
5977;SDS011;3015;51.390;12.256;2022-10-29T17:33:17;15.83;;;14.20;;
5977;SDS011;3015;51.390;12.256;2022-10-29T17:35:43;12.10;;;10.90;;
5977;SDS011;3015;51.390;12.256;2022-10-29T17:38:10;13.60;;;11.60;;
5977;SDS011;3015;51.390;12.256;2022-10-29T17:40:35;12.27;;;11.10;;
5977;SDS011;3015;51.390;12.256;2022-10-29T17:43:01;12.90;;;11.47;;
5977;SDS011;3015;51.390;12.256;2022-10-29T17:45:27;17.37;;;13.00;;
5977;SDS011;3015;51.390;12.256;2022-10-29T17:47:56;15.57;;;14.20;;
5977;SDS011;3015;51.390;12.256;2022-10-29T17:50:22;15.00;;;13.53;;
5977;SDS011;3015;51.390;12.256;2022-10-29T17:52:50;13.20;;;12.00;;
5977;SDS011;3015;51.390;12.256;2022-10-29T17:55:17;16.57;;;13.70;;
5977;SDS011;3015;51.390;12.256;2022-10-29T17:57:43;13.93;;;12.60;;
5977;SDS011;3015;51.390;12.256;2022-10-29T18:00:09;15.80;;;14.20;;
5977;SDS011;3015;51.390;12.256;2022-10-29T18:02:35;16.90;;;14.90;;
5977;SDS011;3015;51.390;12.256;2022-10-29T18:05:00;16.03;;;14.40;;